Time;durP1;ratioP1;P1;durP2;ratioP2;P2;SDS_P1;SDS_P2;PMS_P1;PMS_P2;Temp;Humidity;BMP_temperature;BMP_pressure;BME280_temperature;BME280_humidity;BME280_pressure;Samples;Min_cycle;Max_cycle;Signal;HPM_P1;HPM_P2
2023/09/04 00:01:36;;;;;;;17.48;9.75;;;;;;;13.92;93.54;99727.63;5118185;27;20037;-76
2023/09/04 00:04:03;;;;;;;14.77;10.18;;;;;;;13.90;93.71;99726.91;5118134;27;20046;-80
2023/09/04 00:06:29;;;;;;;16.58;9.95;;;;;;;13.89;94.05;99723.38;5112698;27;20043;-79
2023/09/04 00:08:57;;;;;;;17.25;10.02;;;;;;;13.87;94.18;99716.47;5115612;27;20038;-79
2023/09/04 00:11:23;;;;;;;13.43;9.52;;;;;;;13.84;93.74;99706.00;5098053;27;20043;-80
2023/09/04 00:13:49;;;;;;;14.00;9.23;;;;;;;13.84;94.32;99708.69;5100114;27;20043;-76
2023/09/04 00:16:14;;;;;;;14.50;9.65;;;;;;;13.80;94.23;99719.66;5114891;27;20038;-76
2023/09/04 00:18:39;;;;;;;14.65;9.35;;;;;;;13.82;94.49;99711.47;5098786;27;20416;-77
2023/09/04 00:21:04;;;;;;;13.27;8.07;;;;;;;13.79;94.57;99722.44;5117704;27;20400;-76
2023/09/04 00:23:30;;;;;;;12.50;8.40;;;;;;;13.78;94.88;99715.38;5117665;27;20046;-76
2023/09/04 00:25:55;;;;;;;15.45;9.68;;;;;;;13.76;95.42;99723.59;5117683;27;20046;-76
2023/09/04 00:28:20;;;;;;;20.95;9.90;;;;;;;13.73;94.99;99717.63;5115739;27;20412;-77
2023/09/04 00:30:46;;;;;;;14.95;9.18;;;;;;;13.71;95.30;99725.78;5077708;27;20047;-76
2023/09/04 00:33:11;;;;;;;17.20;10.15;;;;;;;13.69;95.52;99710.81;5116482;27;20046;-76
2023/09/04 00:35:36;;;;;;;16.70;10.38;;;;;;;13.69;95.42;99726.88;5117489;27;20404;-76
2023/09/04 00:38:01;;;;;;;14.63;10.07;;;;;;;13.65;95.95;99720.94;5117830;27;20118;-76
2023/09/04 00:40:27;;;;;;;15.35;10.38;;;;;;;13.68;95.92;99726.03;5099194;27;20038;-76
2023/09/04 00:42:52;;;;;;;14.02;9.05;;;;;;;13.68;96.31;99730.53;5117269;27;20050;-78
2023/09/04 00:45:17;;;;;;;16.45;10.02;;;;;;;13.66;96.53;99717.25;5097628;27;20415;-78
2023/09/04 00:47:44;;;;;;;15.77;10.07;;;;;;;13.64;96.46;99723.75;5103741;27;20034;-78
2023/09/04 00:50:14;;;;;;;18.98;9.27;;;;;;;13.65;96.53;99717.41;5117524;27;20069;-78
2023/09/04 00:52:41;;;;;;;16.38;9.75;;;;;;;13.62;96.72;99731.06;5098344;27;20444;-77
2023/09/04 00:55:06;;;;;;;14.20;9.25;;;;;;;13.63;96.60;99738.13;5097984;27;20615;-76
2023/09/04 00:57:34;;;;;;;23.60;10.18;;;;;;;13.63;96.74;99679.19;5116836;27;20038;-77
2023/09/04 01:00:13;;;;;;;14.95;9.35;;;;;;;13.61;96.92;99724.84;5080723;27;20050;-77
2023/09/04 01:02:40;;;;;;;13.45;9.40;;;;;;;13.59;97.01;99728.63;5117246;27;20045;-78
2023/09/04 01:05:06;;;;;;;15.63;8.90;;;;;;;13.56;96.94;99732.41;5116941;27;20039;-78
2023/09/04 01:07:31;;;;;;;14.95;10.07;;;;;;;13.54;96.90;99734.38;5097695;27;20053;-77
2023/09/04 01:09:57;;;;;;;15.88;10.30;;;;;;;13.55;97.37;99756.63;5098822;27;20049;-78
2023/09/04 01:12:33;;;;;;;17.60;9.88;;;;;;;13.55;96.95;99724.47;5098209;27;20042;-77
2023/09/04 01:14:59;;;;;;;15.25;9.10;;;;;;;13.52;97.62;99724.75;5098565;27;20046;-77
2023/09/04 01:17:25;;;;;;;17.60;9.10;;;;;;;13.51;97.38;99729.25;5098072;27;20055;-77
2023/09/04 01:19:50;;;;;;;14.82;10.02;;;;;;;13.49;97.68;99723.16;5116656;27;20038;-79
2023/09/04 01:22:15;;;;;;;18.00;8.93;;;;;;;13.49;97.46;99730.34;5117237;27;20061;-75
2023/09/04 01:24:42;;;;;;;15.32;10.38;;;;;;;13.47;97.96;99726.94;5095767;27;20035;-77
2023/09/04 01:27:31;;;;;;;16.02;10.38;;;;;;;13.53;98.26;99731.81;5117414;27;20042;-77
2023/09/04 01:30:05;;;;;;;17.33;9.00;;;;;;;13.44;97.71;99720.84;5111111;27;20554;-77
2023/09/04 01:32:40;;;;;;;17.40;9.85;;;;;;;13.48;98.09;99723.28;5097025;27;20038;-76
2023/09/04 01:35:08;;;;;;;19.95;10.40;;;;;;;13.42;98.03;99722.00;5098089;27;20031;-77
2023/09/04 01:37:34;;;;;;;14.40;9.73;;;;;;;13.40;97.46;99716.75;5097893;27;20050;-77
2023/09/04 01:40:00;;;;;;;13.60;8.48;;;;;;;13.40;97.94;99710.53;5099752;27;20030;-77
2023/09/04 01:42:25;;;;;;;20.75;9.15;;;;;;;13.37;98.22;99716.13;5117106;27;20057;-76
2023/09/04 01:44:50;;;;;;;13.60;9.23;;;;;;;13.36;98.09;99714.44;5097324;27;20054;-76
2023/09/04 01:47:15;;;;;;;16.38;9.77;;;;;;;13.36;98.18;99717.13;5099140;27;20058;-78
2023/09/04 01:49:42;;;;;;;13.38;9.13;;;;;;;13.33;97.80;99720.88;5117390;27;20428;-78
2023/09/04 01:52:08;;;;;;;14.70;9.32;;;;;;;13.31;98.11;99719.34;5109783;27;20566;-78
2023/09/04 01:54:33;;;;;;;13.95;9.55;;;;;;;13.31;98.02;99730.03;5113931;27;20035;-75
2023/09/04 01:56:58;;;;;;;14.40;9.27;;;;;;;13.28;98.04;99728.47;5077991;27;20062;-76
2023/09/04 01:59:24;;;;;;;15.38;9.98;;;;;;;13.28;98.07;99731.13;5098426;27;20390;-78
2023/09/04 02:01:49;;;;;;;16.42;8.68;;;;;;;13.25;98.22;99754.63;5099453;27;20039;-76
2023/09/04 02:04:14;;;;;;;15.05;9.02;;;;;;;13.24;98.15;99732.34;5097993;27;20035;-76
2023/09/04 02:06:39;;;;;;;11.48;9.50;;;;;;;13.23;98.38;99749.38;5116189;27;20050;-76
2023/09/04 02:09:05;;;;;;;14.80;8.75;;;;;;;13.21;98.25;99737.94;5097795;27;20045;-76
2023/09/04 02:11:30;;;;;;;13.13;9.15;;;;;;;13.20;98.49;99746.13;5097083;27;20050;-77
2023/09/04 02:13:55;;;;;;;12.88;9.20;;;;;;;13.18;98.31;99738.22;5098246;27;20839;-79
2023/09/04 02:16:22;;;;;;;15.52;9.85;;;;;;;13.16;98.50;99756.22;5061489;27;20401;-79
2023/09/04 02:18:48;;;;;;;12.98;9.07;;;;;;;13.17;99.17;99760.59;5099255;27;20038;-76
2023/09/04 02:21:14;;;;;;;17.70;9.60;;;;;;;13.16;99.48;99755.38;5098245;27;20039;-78
2023/09/04 02:23:40;;;;;;;14.65;9.68;;;;;;;13.15;99.38;99770.56;5098732;27;20105;-80
2023/09/04 02:26:05;;;;;;;17.10;9.80;;;;;;;13.14;99.34;99758.16;5078115;27;20396;-75
2023/09/04 02:28:31;;;;;;;13.30;8.30;;;;;;;13.13;98.57;99761.78;5115594;27;20058;-75
2023/09/04 02:30:56;;;;;;;14.27;9.00;;;;;;;13.13;98.90;99771.63;5115709;27;20054;-75
2023/09/04 02:33:22;;;;;;;14.70;9.20;;;;;;;13.09;99.12;99777.22;5116085;27;20397;-75
2023/09/04 02:35:47;;;;;;;16.98;9.30;;;;;;;13.12;99.20;99797.53;5097122;27;20046;-75
2023/09/04 02:38:12;;;;;;;14.45;10.25;;;;;;;13.12;99.36;99784.16;5115945;27;20038;-75
2023/09/04 02:40:37;;;;;;;14.40;9.40;;;;;;;13.14;98.98;99776.91;5115589;27;20061;-75
2023/09/04 02:43:03;;;;;;;15.10;9.32;;;;;;;13.15;99.90;99775.94;5118073;27;20043;-76
2023/09/04 02:45:28;;;;;;;13.27;8.07;;;;;;;13.15;99.67;99775.06;5117815;27;20053;-77
2023/09/04 02:47:53;;;;;;;17.65;8.70;;;;;;;13.15;99.76;99775.94;5117584;27;20038;-76
2023/09/04 02:50:18;;;;;;;14.35;8.43;;;;;;;13.16;100.00;99771.44;5109352;27;20050;-76
2023/09/04 02:52:44;;;;;;;13.13;8.70;;;;;;;13.15;99.99;99773.25;5079299;28;20061;-82
2023/09/04 02:55:09;;;;;;;12.93;8.88;;;;;;;13.15;100.00;99781.28;5077371;28;20054;-75
2023/09/04 02:57:34;;;;;;;11.88;8.00;;;;;;;13.15;99.99;99786.63;5089755;27;20112;-76
2023/09/04 03:00:03;;;;;;;13.20;8.63;;;;;;;13.15;99.98;99746.47;5093490;27;20038;-76
2023/09/04 03:02:30;;;;;;;14.75;7.78;;;;;;;13.18;99.99;99775.69;5096936;27;20038;-77
2023/09/04 03:04:56;;;;;;;10.82;8.50;;;;;;;13.20;99.37;99788.97;5114315;27;20046;-74
2023/09/04 03:07:28;;;;;;;12.10;7.95;;;;;;;13.23;100.00;99778.84;5115371;27;20050;-75
2023/09/04 03:09:57;;;;;;;11.93;7.95;;;;;;;13.24;99.74;99791.25;5096937;27;20048;-75
2023/09/04 03:12:25;;;;;;;14.07;8.70;;;;;;;13.27;99.46;99791.00;5077520;28;20381;-76
2023/09/04 03:15:03;;;;;;;11.77;7.50;;;;;;;13.41;99.98;99801.47;5076671;28;20128;-76
2023/09/04 03:17:33;;;;;;;14.50;8.40;;;;;;;13.49;99.19;99805.34;5077655;27;20493;-76
2023/09/04 03:19:59;;;;;;;13.55;8.35;;;;;;;13.60;99.04;99792.78;5079387;27;20054;-79
2023/09/04 03:22:26;;;;;;;17.40;8.95;;;;;;;13.70;98.74;99803.59;5097149;27;20785;-80
2023/09/04 03:24:52;;;;;;;10.98;7.80;;;;;;;13.85;98.37;99805.03;5097379;27;20038;-79
2023/09/04 03:27:19;;;;;;;10.57;6.88;;;;;;;13.98;97.37;99797.69;5097313;27;20502;-79
2023/09/04 03:29:44;;;;;;;9.82;6.75;;;;;;;14.09;96.50;99807.50;5115320;27;20046;-79
2023/09/04 03:32:10;;;;;;;12.68;8.25;;;;;;;14.22;95.82;99800.13;5096928;27;20042;-79
2023/09/04 03:34:39;;;;;;;14.07;7.03;;;;;;;14.35;94.77;99807.97;5097184;27;20444;-79
2023/09/04 03:37:05;;;;;;;10.73;7.32;;;;;;;14.45;94.25;99812.47;5096608;27;20057;-79
2023/09/04 03:39:35;;;;;;;12.50;7.30;;;;;;;14.60;93.63;99821.06;5098205;27;20057;-79
2023/09/04 03:42:00;;;;;;;11.45;8.00;;;;;;;14.70;92.67;99811.22;5083629;27;20520;-79
2023/09/04 03:44:26;;;;;;;10.15;7.30;;;;;;;14.82;91.00;99812.88;5100916;27;20062;-79
2023/09/04 03:46:52;;;;;;;11.77;6.75;;;;;;;14.94;89.90;99834.25;5083149;27;20046;-79
2023/09/04 03:49:17;;;;;;;17.60;8.55;;;;;;;15.12;89.48;99821.94;5100772;27;20046;-76
2023/09/04 03:51:42;;;;;;;15.90;7.57;;;;;;;15.25;89.18;99809.97;5100217;27;20064;-76
2023/09/04 03:54:07;;;;;;;11.23;7.35;;;;;;;15.39;88.39;99819.50;5100167;27;20060;-76
2023/09/04 03:56:34;;;;;;;10.98;7.30;;;;;;;15.55;87.63;99794.84;5100437;27;20477;-76
2023/09/04 03:59:00;;;;;;;10.75;6.15;;;;;;;15.69;86.64;99809.75;5100330;27;20069;-76
2023/09/04 04:01:27;;;;;;;11.35;6.25;;;;;;;15.81;85.28;99803.22;5118376;27;20049;-75
2023/09/04 04:03:53;;;;;;;11.23;6.47;;;;;;;15.93;84.69;99808.34;5082393;27;20047;-75
2023/09/04 04:06:20;;;;;;;11.80;6.45;;;;;;;16.07;84.17;99799.03;5099844;27;20527;-75
2023/09/04 04:08:46;;;;;;;8.27;6.00;;;;;;;16.19;82.79;99797.91;5118507;27;20058;-75
2023/09/04 04:11:11;;;;;;;8.25;6.07;;;;;;;16.31;81.94;99807.53;5118479;27;20046;-75
2023/09/04 04:13:36;;;;;;;11.23;6.63;;;;;;;16.44;80.98;99807.25;5118619;27;20042;-75
2023/09/04 04:16:02;;;;;;;9.80;5.68;;;;;;;16.58;79.75;99808.66;5118439;27;20050;-76
2023/09/04 04:18:28;;;;;;;10.55;5.40;;;;;;;16.72;79.59;99816.28;5098750;27;20049;-75
2023/09/04 04:20:54;;;;;;;11.50;6.38;;;;;;;16.88;78.94;99807.63;5106102;27;20548;-81
2023/09/04 04:23:20;;;;;;;11.27;5.63;;;;;;;17.02;77.50;99812.53;5130508;27;20046;-81
2023/09/04 04:25:47;;;;;;;11.38;6.15;;;;;;;17.15;76.48;99810.38;5108720;27;20421;-81
2023/09/04 04:28:12;;;;;;;10.88;6.45;;;;;;;17.27;75.79;99832.56;5102311;27;20520;-82
2023/09/04 04:30:38;;;;;;;11.52;6.15;;;;;;;17.36;74.39;99815.53;5103077;27;20039;-81
2023/09/04 04:33:03;;;;;;;12.93;6.38;;;;;;;17.42;73.45;99814.94;5102942;27;20409;-79
2023/09/04 04:35:30;;;;;;;10.52;6.03;;;;;;;17.50;73.37;99833.03;5085136;27;20509;-82
2023/09/04 04:37:56;;;;;;;14.77;6.35;;;;;;;17.58;72.56;99815.16;5105439;27;20421;-82
2023/09/04 04:40:23;;;;;;;13.77;6.18;;;;;;;17.69;72.17;99816.81;5103439;27;20034;-81
2023/09/04 04:42:49;;;;;;;12.57;6.22;;;;;;;17.77;71.00;99817.75;5097194;27;20050;-81
2023/09/04 04:45:15;;;;;;;16.33;6.47;;;;;;;17.92;71.44;99803.75;5108643;27;20609;-75
2023/09/04 04:47:42;;;;;;;11.20;6.63;;;;;;;18.10;70.62;99810.00;5084220;27;20047;-76
2023/09/04 04:50:11;;;;;;;20.38;7.15;;;;;;;18.27;69.58;99833.47;5084014;27;20043;-76
2023/09/04 04:52:36;;;;;;;17.48;7.25;;;;;;;18.49;69.25;99816.81;5103607;27;20066;-76
2023/09/04 04:55:02;;;;;;;10.13;6.65;;;;;;;18.75;68.69;99827.66;5086770;27;20043;-70
2023/09/04 04:57:29;;;;;;;14.75;6.55;;;;;;;18.99;67.41;99813.47;5084673;27;20031;-72
2023/09/04 04:59:54;;;;;;;11.18;6.90;;;;;;;19.03;66.52;99814.00;5082238;27;20026;-71
2023/09/04 05:02:21;;;;;;;12.63;7.38;;;;;;;19.09;65.65;99816.06;5101329;27;20046;-71
2023/09/04 05:04:48;;;;;;;13.98;6.97;;;;;;;19.14;65.63;99809.19;5103706;27;20040;-73
2023/09/04 05:07:15;;;;;;;9.68;6.75;;;;;;;19.28;65.75;99866.38;5120281;27;20063;-72
2023/09/04 05:09:41;;;;;;;17.67;7.18;;;;;;;19.54;65.50;99802.28;5119387;27;20053;-72
2023/09/04 05:12:08;;;;;;;15.82;6.63;;;;;;;19.74;64.58;99835.34;5117291;27;20042;-73
2023/09/04 05:14:33;;;;;;;11.95;6.47;;;;;;;19.84;63.65;99809.84;5119128;27;20026;-72
2023/09/04 05:16:59;;;;;;;15.05;6.63;;;;;;;19.84;63.20;99812.56;5120274;27;20497;-72
2023/09/04 05:19:24;;;;;;;17.23;7.55;;;;;;;20.06;63.76;99802.13;5118847;27;20023;-73
2023/09/04 05:21:50;;;;;;;12.15;7.70;;;;;;;20.21;62.89;99800.44;5138541;27;20044;-72
2023/09/04 05:24:15;;;;;;;16.80;6.45;;;;;;;20.23;61.74;99801.13;5103130;27;20049;-72
2023/09/04 05:26:40;;;;;;;13.80;7.13;;;;;;;20.34;61.59;99806.22;5130905;27;20046;-71
2023/09/04 05:29:06;;;;;;;11.75;7.07;;;;;;;20.64;61.76;99797.47;5091445;27;20019;-73
2023/09/04 05:31:31;;;;;;;13.90;6.63;;;;;;;20.74;59.96;99789.16;5114690;27;20043;-71
2023/09/04 05:33:56;;;;;;;12.52;7.28;;;;;;;20.98;59.52;99797.25;5115047;27;20047;-72
2023/09/04 05:36:21;;;;;;;13.45;7.10;;;;;;;21.24;59.41;99798.88;5100683;27;20043;-71
2023/09/04 05:38:46;;;;;;;12.68;6.30;;;;;;;21.65;58.36;99796.88;5104981;27;20043;-72
2023/09/04 05:41:12;;;;;;;11.98;6.53;;;;;;;22.07;56.93;99797.34;5114398;27;20037;-72
2023/09/04 05:43:37;;;;;;;12.07;6.55;;;;;;;22.06;55.33;99789.38;5113609;27;20050;-72
2023/09/04 05:46:02;;;;;;;11.75;5.88;;;;;;;22.34;55.52;99787.84;5128492;27;20046;-73
2023/09/04 05:48:28;;;;;;;7.47;5.15;;;;;;;22.70;54.81;99793.44;5132361;27;20031;-72
2023/09/04 05:50:53;;;;;;;13.18;5.55;;;;;;;23.05;54.38;99791.09;5131853;27;20058;-73
2023/09/04 05:53:19;;;;;;;8.98;6.32;;;;;;;23.80;53.28;99780.03;5121529;27;20038;-76
2023/09/04 05:56:01;;;;;;;10.07;6.38;;;;;;;24.91;51.02;99795.81;5116724;27;20045;-74
2023/09/04 05:58:27;;;;;;;11.20;5.57;;;;;;;26.19;47.91;99773.38;5097608;27;20054;-73
2023/09/04 06:00:52;;;;;;;14.45;6.07;;;;;;;27.44;45.06;99774.22;5116614;27;20042;-72
2023/09/04 06:03:17;;;;;;;12.82;6.78;;;;;;;28.52;42.33;99761.47;5115656;27;20038;-73
2023/09/04 06:05:42;;;;;;;11.32;5.13;;;;;;;29.30;39.60;99779.34;5064370;27;20054;-78
2023/09/04 06:08:08;;;;;;;14.00;6.05;;;;;;;29.99;38.69;99767.16;5116715;27;20468;-78
2023/09/04 06:10:33;;;;;;;12.18;5.70;;;;;;;30.73;37.59;99766.66;5117266;27;20053;-78
2023/09/04 06:12:59;;;;;;;11.80;5.88;;;;;;;31.28;35.72;99731.38;5098142;27;20504;-80
2023/09/04 06:15:24;;;;;;;10.18;5.63;;;;;;;31.83;34.81;99775.00;5098180;27;20504;-79
2023/09/04 06:17:49;;;;;;;9.32;5.30;;;;;;;32.47;34.10;99792.28;5098030;27;20060;-78
2023/09/04 06:20:14;;;;;;;15.18;5.57;;;;;;;33.10;32.45;99764.34;5116741;27;20047;-78
2023/09/04 06:22:40;;;;;;;12.70;5.68;;;;;;;33.69;31.30;99772.09;5081499;27;20045;-78
2023/09/04 06:25:05;;;;;;;9.23;5.53;;;;;;;34.27;31.02;99774.19;5117028;27;20047;-79
2023/09/04 06:27:30;;;;;;;7.20;4.60;;;;;;;34.69;30.14;99765.16;5098474;27;20412;-79
2023/09/04 06:29:56;;;;;;;7.47;4.80;;;;;;;35.03;29.40;99762.97;5116727;27;20043;-78
2023/09/04 06:32:21;;;;;;;10.07;5.30;;;;;;;35.20;29.02;99769.19;5116705;27;20046;-78
2023/09/04 06:34:46;;;;;;;6.78;5.10;;;;;;;35.30;28.41;99783.13;5098264;27;20046;-78
2023/09/04 06:37:11;;;;;;;13.00;5.70;;;;;;;35.34;28.59;99775.94;5117564;27;20045;-78
2023/09/04 06:39:37;;;;;;;15.13;5.15;;;;;;;35.31;28.48;99779.25;5097570;27;20058;-77
2023/09/04 06:42:02;;;;;;;13.35;5.60;;;;;;;35.42;27.86;99786.53;5116102;27;20042;-77
2023/09/04 06:44:30;;;;;;;7.95;4.95;;;;;;;35.93;27.92;99784.00;5095503;27;20484;-76
2023/09/04 06:46:55;;;;;;;10.80;5.00;;;;;;;36.64;27.18;99803.63;5110933;27;20030;-77
2023/09/04 06:49:20;;;;;;;8.32;5.40;;;;;;;37.37;26.04;99796.66;5116349;27;20050;-76
2023/09/04 06:51:45;;;;;;;11.25;5.18;;;;;;;38.04;25.28;99783.34;5097448;27;20409;-77
2023/09/04 06:54:10;;;;;;;6.20;5.05;;;;;;;38.59;24.44;99790.59;5081224;27;20074;-78
2023/09/04 06:56:36;;;;;;;9.50;5.35;;;;;;;39.02;23.99;99772.13;5116713;27;20405;-79
2023/09/04 06:59:01;;;;;;;10.05;5.20;;;;;;;39.41;23.29;99769.22;5117297;27;20386;-77
2023/09/04 07:01:26;;;;;;;13.98;5.90;;;;;;;39.79;22.39;99775.75;5116127;27;20038;-77
2023/09/04 07:03:52;;;;;;;11.48;6.20;;;;;;;40.34;22.01;99787.31;5115454;27;20058;-78
2023/09/04 07:06:17;;;;;;;12.02;5.07;;;;;;;40.89;21.36;99777.22;5080739;27;20054;-78
2023/09/04 07:08:42;;;;;;;7.40;5.78;;;;;;;41.11;20.81;99773.75;5080479;27;20043;-77
2023/09/04 07:11:07;;;;;;;9.10;5.25;;;;;;;40.93;20.93;99780.25;5116341;27;20034;-77
2023/09/04 07:13:32;;;;;;;6.68;5.47;;;;;;;40.49;21.19;99777.88;5116776;27;20053;-76
2023/09/04 07:15:58;;;;;;;6.25;4.93;;;;;;;39.70;21.81;99782.28;5119506;27;20035;-76
2023/09/04 07:18:23;;;;;;;9.35;5.20;;;;;;;38.65;22.64;99799.75;5119195;27;20042;-75
2023/09/04 07:20:48;;;;;;;5.13;4.63;;;;;;;37.66;23.34;99798.84;5100334;27;20049;-77
2023/09/04 07:23:13;;;;;;;4.65;4.22;;;;;;;36.82;24.17;99805.03;5119866;27;20042;-75
2023/09/04 07:25:38;;;;;;;5.82;4.55;;;;;;;35.93;24.86;99793.16;5119297;27;20159;-78
2023/09/04 07:28:04;;;;;;;5.75;4.22;;;;;;;35.27;25.50;99790.03;5119243;27;20480;-75
2023/09/04 07:30:29;;;;;;;7.18;4.95;;;;;;;34.89;26.58;99793.06;5119320;27;20031;-75
2023/09/04 07:32:54;;;;;;;7.18;4.90;;;;;;;34.55;26.76;99820.97;5119408;27;20051;-77
2023/09/04 07:35:19;;;;;;;9.25;4.82;;;;;;;34.19;27.20;99797.63;5119148;27;20042;-75
2023/09/04 07:37:45;;;;;;;10.60;4.85;;;;;;;33.94;27.87;99796.50;5119406;27;20397;-76
2023/09/04 07:40:10;;;;;;;5.93;4.75;;;;;;;33.75;28.36;99798.75;5100993;27;20409;-77
2023/09/04 07:42:36;;;;;;;9.80;5.72;;;;;;;33.72;28.33;99811.13;5121055;27;20031;-79
2023/09/04 07:45:02;;;;;;;9.10;4.82;;;;;;;33.83;28.18;99801.91;5120618;27;20049;-77
2023/09/04 07:47:30;;;;;;;6.10;5.32;;;;;;;34.20;27.90;99801.22;5120118;27;20034;-78
2023/09/04 07:49:55;;;;;;;6.70;5.28;;;;;;;34.59;27.34;99813.81;5101260;27;20046;-75
2023/09/04 07:52:21;;;;;;;9.50;5.13;;;;;;;34.86;27.19;99794.44;5118805;27;20043;-76
2023/09/04 07:54:48;;;;;;;8.60;5.53;;;;;;;35.24;26.72;99795.25;5100251;27;20408;-77
2023/09/04 07:57:14;;;;;;;7.75;5.55;;;;;;;35.80;26.46;99818.63;5101121;27;20053;-74
2023/09/04 07:59:40;;;;;;;5.95;5.10;;;;;;;36.36;25.53;99807.75;5118611;27;20050;-73
2023/09/04 08:02:05;;;;;;;8.45;5.45;;;;;;;37.01;25.57;99804.22;5099998;27;20034;-74
2023/09/04 08:04:31;;;;;;;11.23;5.80;;;;;;;37.97;24.97;99793.97;5099105;27;20053;-75
2023/09/04 08:06:56;;;;;;;8.70;5.40;;;;;;;38.79;23.62;99800.75;5099719;27;20081;-75
2023/09/04 08:09:22;;;;;;;9.13;5.78;;;;;;;39.66;22.73;99820.28;5118569;27;20054;-73
2023/09/04 08:11:47;;;;;;;5.80;5.20;;;;;;;40.69;21.84;99799.06;5118281;27;20039;-74
2023/09/04 08:14:12;;;;;;;12.80;6.25;;;;;;;41.59;21.06;99791.06;5099352;27;20484;-75
2023/09/04 08:16:37;;;;;;;7.05;6.18;;;;;;;42.31;20.68;99794.00;5099893;27;20038;-74
2023/09/04 08:19:02;;;;;;;11.13;6.45;;;;;;;42.73;20.14;99787.13;5118355;27;20481;-74
2023/09/04 08:21:27;;;;;;;8.57;6.75;;;;;;;43.17;19.62;99805.09;5118238;27;20046;-74
2023/09/04 08:23:53;;;;;;;7.10;6.40;;;;;;;43.33;19.19;99797.94;5099900;27;20035;-74
2023/09/04 08:26:18;;;;;;;8.73;6.38;;;;;;;43.54;18.84;99794.56;5117713;27;20404;-74
2023/09/04 08:28:43;;;;;;;7.43;6.82;;;;;;;43.72;18.75;99799.09;5118209;27;20045;-74
2023/09/04 08:31:10;;;;;;;8.02;6.53;;;;;;;43.68;18.27;99800.94;5098629;27;20049;-74
2023/09/04 08:33:35;;;;;;;7.35;6.65;;;;;;;43.47;18.44;99793.03;5117871;27;20035;-74
2023/09/04 08:36:01;;;;;;;7.63;6.68;;;;;;;43.02;18.72;99783.03;5117316;27;20575;-74
2023/09/04 08:38:27;;;;;;;14.18;6.85;;;;;;;42.44;19.09;99789.53;5116770;27;20050;-72
2023/09/04 08:40:55;;;;;;;6.82;6.22;;;;;;;41.79;19.53;99792.59;5116897;27;20051;-76
2023/09/04 08:43:22;;;;;;;7.50;6.70;;;;;;;41.20;20.26;99799.91;5116381;27;20065;-73
2023/09/04 08:45:48;;;;;;;7.18;5.63;;;;;;;40.79;20.56;99798.94;5116616;27;20043;-71
2023/09/04 08:48:19;;;;;;;6.97;6.25;;;;;;;40.43;20.86;99801.44;5097479;27;20527;-73
2023/09/04 08:50:46;;;;;;;9.00;5.95;;;;;;;40.40;20.87;99794.50;5098061;27;20049;-74
2023/09/04 08:53:11;;;;;;;7.72;5.18;;;;;;;40.23;20.96;99786.63;5116264;27;20638;-75
2023/09/04 08:55:37;;;;;;;7.88;5.28;;;;;;;40.18;20.97;99794.25;5116707;27;20061;-75
2023/09/04 08:58:03;;;;;;;8.52;5.65;;;;;;;40.11;20.94;99782.59;5116530;27;20061;-74
2023/09/04 09:00:29;;;;;;;5.93;5.32;;;;;;;40.11;20.84;99771.44;5116444;27;20532;-74
2023/09/04 09:02:58;;;;;;;8.68;5.43;;;;;;;40.22;20.40;99786.91;5116090;27;20504;-72
2023/09/04 09:05:24;;;;;;;6.75;5.00;;;;;;;40.27;19.88;99781.25;5116338;27;20054;-72
2023/09/04 09:07:51;;;;;;;5.85;5.20;;;;;;;40.31;19.90;99799.09;5116424;27;20066;-74
2023/09/04 09:10:19;;;;;;;11.20;5.63;;;;;;;40.36;20.15;99787.84;5097462;27;20480;-75
2023/09/04 09:12:45;;;;;;;7.00;4.65;;;;;;;40.27;20.22;99775.66;5097695;27;20515;-74
2023/09/04 09:15:11;;;;;;;5.53;5.03;;;;;;;40.18;20.40;99783.06;5097780;27;20049;-74
2023/09/04 09:17:57;;;;;;;5.78;5.18;;;;;;;40.32;20.27;99795.16;5115904;27;20053;-74
2023/09/04 09:20:39;;;;;;;6.85;5.10;;;;;;;39.49;20.10;99799.28;5097701;27;20054;-74
2023/09/04 09:23:05;;;;;;;7.22;4.80;;;;;;;37.61;21.73;99788.53;5097158;27;20046;-74
2023/09/04 09:25:31;;;;;;;4.70;4.30;;;;;;;36.22;23.26;99789.97;5097406;27;20046;-73
2023/09/04 09:28:07;;;;;;;5.60;4.63;;;;;;;35.10;24.84;99792.13;5081282;27;20835;-73
2023/09/04 09:30:42;;;;;;;4.72;4.20;;;;;;;34.11;25.76;99792.53;5095407;27;20043;-74
2023/09/04 09:33:15;;;;;;;7.47;4.47;;;;;;;33.80;26.33;99794.09;5089090;27;20051;-73
2023/09/04 09:35:41;;;;;;;6.07;4.45;;;;;;;33.78;26.63;99787.16;5116002;27;20034;-74
2023/09/04 09:38:07;;;;;;;4.05;3.75;;;;;;;33.67;27.23;99774.25;5114807;27;20045;-75
2023/09/04 09:40:33;;;;;;;3.80;3.42;;;;;;;33.32;26.81;99805.84;5115829;27;20585;-75
2023/09/04 09:42:59;;;;;;;9.55;3.97;;;;;;;32.85;27.00;99793.47;5097821;27;20447;-74
2023/09/04 09:45:29;;;;;;;4.50;3.63;;;;;;;32.36;27.81;99787.66;5097719;27;20046;-74
2023/09/04 09:47:54;;;;;;;5.75;4.40;;;;;;;31.83;28.52;99797.03;5116252;27;20511;-75
2023/09/04 09:50:20;;;;;;;7.82;4.80;;;;;;;31.33;29.81;99813.31;5116061;27;20755;-75
2023/09/04 09:52:57;;;;;;;5.40;4.13;;;;;;;31.42;30.88;99800.00;5077495;27;20057;-77
2023/09/04 09:55:24;;;;;;;4.60;4.18;;;;;;;31.34;30.16;99799.28;5066729;27;20034;-76
2023/09/04 09:57:50;;;;;;;5.15;3.75;;;;;;;31.30;29.83;99791.72;5096628;27;20038;-76
2023/09/04 10:00:15;;;;;;;4.90;4.15;;;;;;;31.37;30.62;99807.09;5115910;27;20408;-77
2023/09/04 10:02:41;;;;;;;4.43;4.00;;;;;;;31.51;30.87;99799.38;5096973;27;20057;-77
2023/09/04 10:05:09;;;;;;;5.90;3.75;;;;;;;31.48;30.26;99799.03;5116124;27;20395;-76
2023/09/04 10:07:37;;;;;;;6.68;4.13;;;;;;;31.10;30.16;99803.13;5095660;27;20051;-76
2023/09/04 10:10:05;;;;;;;5.28;4.22;;;;;;;30.72;30.78;99805.44;5115670;27;20042;-77
2023/09/04 10:12:59;;;;;;;5.05;4.20;;;;;;;30.55;31.54;99797.88;5097896;27;20620;-77
2023/09/04 10:15:26;;;;;;;5.20;3.72;;;;;;;30.19;31.59;99801.56;5082937;27;20080;-77
2023/09/04 10:18:12;;;;;;;4.10;3.70;;;;;;;30.22;32.61;99809.34;5115748;27;20039;-77
2023/09/04 10:20:43;;;;;;;4.07;3.70;;;;;;;29.69;31.49;99805.56;5097460;27;20042;-77
2023/09/04 10:23:13;;;;;;;4.13;3.58;;;;;;;29.43;32.33;99798.47;5079711;27;20053;-77
2023/09/04 10:25:51;;;;;;;7.28;3.55;;;;;;;29.24;32.97;99811.31;5097239;27;20042;-77
2023/09/04 10:28:46;;;;;;;4.22;3.55;;;;;;;29.02;32.51;99799.06;5115346;27;20042;-77
2023/09/04 10:31:12;;;;;;;4.88;4.10;;;;;;;28.89;33.61;99805.53;5032465;28;20055;-78
2023/09/04 10:33:38;;;;;;;5.30;3.95;;;;;;;28.76;33.50;99822.91;4997821;28;20055;-77
2023/09/04 10:36:04;;;;;;;4.00;3.40;;;;;;;28.62;33.79;99798.53;5015449;28;20083;-77
2023/09/04 10:38:30;;;;;;;5.57;3.58;;;;;;;28.50;34.06;99804.75;5032341;28;20056;-75
2023/09/04 10:40:56;;;;;;;5.75;3.78;;;;;;;28.38;34.67;99792.78;5000774;28;20045;-80
2023/09/04 10:43:22;;;;;;;6.82;3.53;;;;;;;28.15;34.56;99814.41;5031668;28;20036;-81
2023/09/04 10:46:07;;;;;;;6.10;4.18;;;;;;;28.05;34.98;99812.16;5032304;28;20032;-78
2023/09/04 10:48:49;;;;;;;5.05;3.63;;;;;;;27.63;35.70;99810.88;5033812;28;20064;-79
2023/09/04 10:51:35;;;;;;;7.68;4.03;;;;;;;27.29;36.23;99813.88;5036248;28;20052;-76
2023/09/04 10:54:03;;;;;;;5.25;3.83;;;;;;;26.83;36.54;99812.00;5017034;28;20898;-75
2023/09/04 10:56:29;;;;;;;4.90;4.30;;;;;;;26.69;37.37;99802.09;5016769;28;20040;-76
2023/09/04 10:59:04;;;;;;;5.15;3.78;;;;;;;26.64;37.98;99815.53;5022232;28;20032;-73
2023/09/04 11:01:34;;;;;;;6.60;4.28;;;;;;;26.67;37.86;99809.66;5017454;28;20048;-71
2023/09/04 11:04:07;;;;;;;6.32;3.92;;;;;;;26.71;38.63;99817.25;5022268;28;20052;-75
2023/09/04 11:06:34;;;;;;;7.23;3.93;;;;;;;26.76;38.32;99814.72;5035123;27;20044;-75
2023/09/04 11:09:01;;;;;;;5.38;3.95;;;;;;;26.80;38.28;99809.66;5107594;27;20039;-75
2023/09/04 11:11:27;;;;;;;4.75;3.72;;;;;;;26.77;37.81;99799.13;5118452;27;20427;-73
2023/09/04 11:14:01;;;;;;;6.57;3.90;;;;;;;26.80;38.32;99820.59;5118489;27;20054;-75
2023/09/04 11:16:26;;;;;;;;;;;;;;;26.97;37.64;99815.59;5118089;27;20046;-78
2023/09/04 11:19:03;;;;;;;4.38;3.78;;;;;;;26.54;39.22;99817.84;5082439;27;19915;-75
2023/09/04 11:21:36;;;;;;;5.45;3.55;;;;;;;26.33;39.81;99814.25;5118472;27;20396;-75
2023/09/04 11:24:03;;;;;;;9.47;3.97;;;;;;;26.19;40.02;99823.41;5100204;27;20043;-74
2023/09/04 11:26:29;;;;;;;6.43;3.80;;;;;;;26.15;40.13;99802.19;5116094;27;20269;-74
2023/09/04 11:29:02;;;;;;;10.55;5.68;;;;;;;26.23;40.27;99843.00;5118233;27;20034;-74